createdAt,value
2018-07-11T00:01:55.995Z,9.70
2018-07-11T00:04:24.405Z,10.47
2018-07-11T00:06:52.778Z,10.27
2018-07-11T00:09:21.219Z,9.60
2018-07-11T00:11:49.580Z,10.70
2018-07-11T00:14:18.016Z,10.37
2018-07-11T00:16:51.857Z,9.80
2018-07-11T00:19:20.681Z,9.67
2018-07-11T00:21:49.099Z,11.07
2018-07-11T00:24:17.944Z,9.77
2018-07-11T00:26:46.822Z,10.50
2018-07-11T00:29:15.249Z,10.37
2018-07-11T00:31:43.659Z,10.50
2018-07-11T00:34:12.561Z,9.37
2018-07-11T00:36:41.402Z,10.33
2018-07-11T00:39:10.273Z,8.90
2018-07-11T00:41:38.770Z,10.13
2018-07-11T00:44:09.735Z,9.57
2018-07-11T00:46:38.250Z,10.07
2018-07-11T00:49:07.125Z,8.93
2018-07-11T00:51:35.551Z,9.03
2018-07-11T00:54:04.037Z,8.87
2018-07-11T00:56:33.038Z,8.97
2018-07-11T00:59:03.351Z,9.63
2018-07-11T01:01:31.757Z,9.67
2018-07-11T01:04:00.945Z,10.50
2018-07-11T01:06:29.368Z,10.17
2018-07-11T01:08:58.774Z,10.67
2018-07-11T01:11:32.251Z,9.80
2018-07-11T01:14:00.655Z,10.03
2018-07-11T01:16:29.594Z,10.40
2018-07-11T01:19:01.793Z,10.07
2018-07-11T01:21:31.029Z,10.27
2018-07-11T01:23:59.460Z,10.33
2018-07-11T01:26:32.305Z,10.67
2018-07-11T01:29:00.803Z,11.60
2018-07-11T01:31:29.206Z,10.80
2018-07-11T01:33:59.088Z,10.57
2018-07-11T01:36:27.875Z,11.60
2018-07-11T01:38:56.370Z,10.83
2018-07-11T01:41:25.238Z,10.60
2018-07-11T01:43:54.097Z,10.93
2018-07-11T01:46:22.481Z,11.50
2018-07-11T01:48:51.491Z,10.83
2018-07-11T01:51:19.978Z,10.47
2018-07-11T01:53:48.378Z,9.50
2018-07-11T01:56:16.786Z,8.70
2018-07-11T01:58:46.175Z,9.87
2018-07-11T02:01:15.985Z,9.27
2018-07-11T02:03:44.411Z,9.83
2018-07-11T02:06:13.493Z,11.07
2018-07-11T02:08:42.404Z,9.33
2018-07-11T02:11:10.820Z,12.03
2018-07-11T02:13:39.272Z,13.23
2018-07-11T02:16:08.082Z,12.57
2018-07-11T02:18:36.829Z,12.90
2018-07-11T02:21:06.173Z,12.83
2018-07-11T02:23:37.800Z,13.30
2018-07-11T02:26:06.755Z,12.83
2018-07-11T02:28:35.238Z,11.80
2018-07-11T02:31:03.855Z,13.60
2018-07-11T02:33:32.285Z,12.60
2018-07-11T02:36:01.217Z,13.50
2018-07-11T02:38:30.064Z,12.83
2018-07-11T02:40:58.470Z,12.33
2018-07-11T02:43:27.362Z,13.60
2018-07-11T02:45:56.250Z,11.83
2018-07-11T02:48:24.653Z,12.27
2018-07-11T02:50:53.114Z,12.50
2018-07-11T02:53:22.963Z,11.77
2018-07-11T02:55:52.390Z,12.67
2018-07-11T02:58:21.309Z,13.27
2018-07-11T03:00:50.568Z,12.07
2018-07-11T03:03:19.067Z,12.10
2018-07-11T03:05:48.026Z,12.77
2018-07-11T03:08:17.729Z,12.37
2018-07-11T03:10:46.970Z,13.87
2018-07-11T03:13:18.765Z,12.83
2018-07-11T03:15:47.210Z,12.90
2018-07-11T03:18:15.699Z,12.87
2018-07-11T03:20:44.574Z,12.37
2018-07-11T03:23:13.006Z,12.80
2018-07-11T03:25:41.867Z,11.53
2018-07-11T03:28:10.275Z,12.87
2018-07-11T03:30:38.673Z,13.03
2018-07-11T03:33:07.618Z,13.83
2018-07-11T03:35:36.036Z,13.40
2018-07-11T03:38:04.509Z,11.87
2018-07-11T03:40:33.298Z,12.83
2018-07-11T03:43:02.125Z,12.83
2018-07-11T03:45:30.967Z,13.83
2018-07-11T03:47:59.356Z,11.57
2018-07-11T03:50:28.571Z,13.33
2018-07-11T03:52:56.999Z,13.57
2018-07-11T03:55:25.395Z,13.83
2018-07-11T03:57:53.756Z,13.63
2018-07-11T04:00:25.580Z,12.77
2018-07-11T04:02:55.319Z,13.67
2018-07-11T04:05:23.899Z,12.43
2018-07-11T04:07:52.365Z,13.57
2018-07-11T04:10:21.119Z,13.77
2018-07-11T04:12:51.074Z,11.93
2018-07-11T04:15:19.456Z,13.00
2018-07-11T04:17:48.230Z,13.13
2018-07-11T04:20:17.022Z,12.33
2018-07-11T04:22:45.876Z,12.37
2018-07-11T04:25:14.286Z,11.80
2018-07-11T04:27:44.706Z,11.83
2018-07-11T04:30:13.811Z,11.87
2018-07-11T04:32:42.669Z,11.23
2018-07-11T04:35:11.171Z,11.53
2018-07-11T04:37:40.066Z,12.20
2018-07-11T04:40:08.980Z,12.53
2018-07-11T04:42:37.477Z,12.83
2018-07-11T04:45:06.194Z,12.23
2018-07-11T04:47:35.133Z,12.70
2018-07-11T04:50:03.616Z,12.90
2018-07-11T04:52:32.097Z,12.80
2018-07-11T04:55:01.073Z,11.53
2018-07-11T04:57:29.989Z,12.70
2018-07-11T04:59:58.523Z,12.37
2018-07-11T05:02:26.898Z,12.60
2018-07-11T05:04:55.670Z,12.17
2018-07-11T05:07:24.058Z,12.60
2018-07-11T05:09:52.459Z,11.50
2018-07-11T05:12:21.328Z,11.17
2018-07-11T05:14:50.438Z,11.63
2018-07-11T05:17:19.014Z,12.83
2018-07-11T05:19:47.494Z,11.87
2018-07-11T05:22:16.350Z,12.23
2018-07-11T05:24:44.750Z,12.00
2018-07-11T05:27:13.529Z,12.27
2018-07-11T05:29:42.393Z,11.90
2018-07-11T05:32:10.793Z,11.73
2018-07-11T05:34:39.181Z,11.17
2018-07-11T05:37:07.998Z,12.27
2018-07-11T05:39:36.789Z,12.00
2018-07-11T05:42:05.523Z,12.43
2018-07-11T05:44:33.942Z,12.83
2018-07-11T05:47:05.588Z,11.93
2018-07-11T05:49:35.016Z,12.20
2018-07-11T05:52:04.547Z,12.67
2018-07-11T05:54:34.544Z,12.23
2018-07-11T05:57:03.720Z,12.50
2018-07-11T05:59:32.113Z,11.97
2018-07-11T06:02:00.852Z,11.87
2018-07-11T06:04:29.614Z,11.63
2018-07-11T06:06:58.046Z,11.93
2018-07-11T06:09:26.814Z,11.10
2018-07-11T06:11:55.618Z,11.90
2018-07-11T06:14:24.485Z,12.77
2018-07-11T06:16:52.873Z,12.67
2018-07-11T06:19:21.278Z,11.70
2018-07-11T06:21:50.967Z,13.07
2018-07-11T06:24:20.060Z,12.53
2018-07-11T06:26:48.605Z,11.63
2018-07-11T06:29:17.105Z,12.37
2018-07-11T06:31:45.485Z,12.30
2018-07-11T06:34:13.849Z,12.07
2018-07-11T06:36:42.214Z,11.00
2018-07-11T06:39:10.651Z,12.10
2018-07-11T06:41:39.434Z,11.67
2018-07-11T06:44:09.241Z,12.10
2018-07-11T06:46:37.663Z,11.47
2018-07-11T06:49:06.480Z,12.27
2018-07-11T06:51:34.894Z,12.80
2018-07-11T06:54:03.802Z,13.77
2018-07-11T06:56:32.183Z,13.83
2018-07-11T06:59:00.930Z,14.60
2018-07-11T07:01:29.411Z,14.60
2018-07-11T07:03:57.831Z,14.50
2018-07-11T07:06:26.695Z,14.43
2018-07-11T07:08:55.482Z,14.53
2018-07-11T07:11:24.286Z,16.13
2018-07-11T07:13:53.132Z,15.83
2018-07-11T07:16:21.935Z,16.93
2018-07-11T07:18:50.725Z,17.73
2018-07-11T07:21:19.083Z,17.20
2018-07-11T07:23:47.480Z,15.63
2018-07-11T07:26:16.288Z,15.97
2018-07-11T07:53:21.512Z,20.30
2018-07-11T08:26:30.366Z,19.70
2018-07-11T08:40:59.584Z,21.83
2018-07-11T08:47:15.216Z,20.03
2018-07-11T08:49:49.680Z,21.33
2018-07-11T08:54:26.294Z,21.37
2018-07-11T08:58:02.069Z,20.40
2018-07-11T09:00:35.957Z,21.03
2018-07-11T09:03:22.594Z,22.80
2018-07-11T09:10:11.017Z,22.00
2018-07-11T09:12:55.006Z,23.90
2018-07-11T09:15:33.831Z,22.10
2018-07-11T09:18:17.159Z,24.03
2018-07-11T09:21:00.648Z,25.07
2018-07-11T09:23:39.269Z,22.50
2018-07-11T09:26:07.726Z,25.63
2018-07-11T09:28:36.103Z,24.00
2018-07-11T09:31:04.939Z,23.07
2018-07-11T09:33:33.391Z,24.93
2018-07-11T09:36:01.774Z,23.80
2018-07-11T09:38:30.217Z,23.67
2018-07-11T09:40:59.087Z,24.20
2018-07-11T09:43:27.543Z,22.77
2018-07-11T09:45:55.958Z,21.87
2018-07-11T09:48:24.866Z,21.17
2018-07-11T09:50:53.276Z,20.23
2018-07-11T09:53:21.692Z,20.60
2018-07-11T09:55:50.580Z,20.57
2018-07-11T09:58:19.669Z,20.77
2018-07-11T10:00:53.864Z,15.47
2018-07-11T10:03:22.314Z,12.27
2018-07-11T10:05:51.259Z,11.43
2018-07-11T10:08:20.187Z,12.07
2018-07-11T10:25:35.649Z,17.57
2018-07-11T10:28:15.810Z,13.23
2018-07-11T10:30:44.237Z,14.80
2018-07-11T10:33:14.287Z,14.03
2018-07-11T10:35:43.018Z,16.53
2018-07-11T10:38:12.802Z,15.30
2018-07-11T10:40:41.261Z,15.80
2018-07-11T10:43:15.188Z,17.40
2018-07-11T10:45:44.094Z,17.47
2018-07-11T10:48:12.910Z,16.13
2018-07-11T10:50:41.282Z,16.23
2018-07-11T10:53:10.103Z,17.43
2018-07-11T10:55:39.811Z,18.20
2018-07-11T10:58:08.615Z,16.40
2018-07-11T11:00:37.246Z,16.70
2018-07-11T11:03:05.521Z,15.80
2018-07-11T11:05:34.296Z,16.20
2018-07-11T11:08:02.734Z,17.07
2018-07-11T11:10:31.561Z,16.23
2018-07-11T11:13:00.206Z,17.07
2018-07-11T11:15:28.629Z,15.23
2018-07-11T11:40:06.224Z,22.67
2018-07-11T11:42:35.289Z,23.03
2018-07-11T11:45:03.872Z,20.53
2018-07-11T11:47:32.269Z,21.90
2018-07-11T11:50:00.657Z,19.50
2018-07-11T11:52:29.116Z,19.83
2018-07-11T11:54:57.957Z,21.10
2018-07-11T11:57:26.347Z,20.37
2018-07-11T11:59:55.125Z,19.03
2018-07-11T12:02:23.920Z,20.53
2018-07-11T12:04:52.328Z,20.20
2018-07-11T12:07:20.766Z,19.03
2018-07-11T12:09:49.628Z,16.83
2018-07-11T12:51:43.075Z,10.60
2018-07-11T12:54:11.928Z,10.00
2018-07-11T12:56:40.331Z,10.23
2018-07-11T12:59:08.726Z,9.80
2018-07-11T13:06:34.145Z,7.30
2018-07-11T13:09:02.623Z,7.57
2018-07-11T13:11:31.026Z,7.30
2018-07-11T13:13:59.433Z,6.60
2018-07-11T13:16:27.798Z,6.70
2018-07-11T13:18:56.560Z,6.77
2018-07-11T13:21:25.361Z,5.60
2018-07-11T13:23:54.124Z,3.43
2018-07-11T13:26:22.530Z,4.13
2018-07-11T13:28:51.383Z,4.37
2018-07-11T13:31:19.769Z,4.07
2018-07-11T13:33:48.615Z,5.73
2018-07-11T13:36:17.055Z,6.30
2018-07-11T13:38:45.427Z,5.50
2018-07-11T13:41:14.240Z,5.57
2018-07-11T13:43:42.628Z,5.77
2018-07-11T13:46:11.407Z,6.50
2018-07-11T13:48:39.845Z,6.20
2018-07-11T13:51:08.720Z,5.30
2018-07-11T13:53:37.213Z,4.60
2018-07-11T13:56:05.643Z,5.10
2018-07-11T13:58:34.576Z,4.97
2018-07-11T14:01:02.998Z,4.90
2018-07-11T14:03:31.555Z,4.90
2018-07-11T14:06:00.026Z,4.27
2018-07-11T14:08:28.501Z,3.90
2018-07-11T14:10:57.371Z,4.00
2018-07-11T14:13:26.239Z,4.97
2018-07-11T14:15:55.599Z,4.93
2018-07-11T14:18:24.054Z,8.40
2018-07-11T14:20:52.961Z,7.90
2018-07-11T14:23:39.716Z,8.00
2018-07-11T14:26:08.761Z,7.40
2018-07-11T14:28:41.754Z,8.63
2018-07-11T14:31:11.575Z,7.17
2018-07-11T14:33:40.036Z,7.50
2018-07-11T14:36:08.469Z,7.17
2018-07-11T14:38:37.251Z,8.13
2018-07-11T14:41:05.679Z,8.73
2018-07-11T14:43:34.150Z,7.93
2018-07-11T14:46:03.098Z,7.83
2018-07-11T14:48:31.533Z,7.60
2018-07-11T14:51:01.782Z,7.47
2018-07-11T14:53:34.051Z,7.97
2018-07-11T14:56:02.970Z,7.50
2018-07-11T14:58:31.802Z,7.97
2018-07-11T15:01:00.196Z,6.60
2018-07-11T15:03:28.605Z,6.73
2018-07-11T15:05:58.361Z,7.33
2018-07-11T15:08:27.035Z,8.77
2018-07-11T15:10:55.415Z,7.97
2018-07-11T15:13:24.477Z,8.17
2018-07-11T15:15:52.884Z,7.87
2018-07-11T15:18:22.000Z,7.70
2018-07-11T15:20:50.534Z,8.77
2018-07-11T15:23:19.045Z,9.37
2018-07-11T15:25:47.423Z,9.50
2018-07-11T15:28:15.914Z,8.63
2018-07-11T15:30:44.334Z,8.87
2018-07-11T15:33:12.739Z,9.03
2018-07-11T15:35:41.213Z,9.40
2018-07-11T15:38:10.067Z,8.37
2018-07-11T15:40:38.812Z,8.77
2018-07-11T15:43:07.216Z,8.57
2018-07-11T15:45:35.653Z,8.07
2018-07-11T15:48:04.118Z,8.37
2018-07-11T15:50:33.248Z,7.70
2018-07-11T15:53:02.559Z,7.97
2018-07-11T15:55:32.583Z,7.07
2018-07-11T15:58:03.272Z,7.53
2018-07-11T16:00:36.637Z,7.60
2018-07-11T16:03:05.102Z,8.33
2018-07-11T16:05:34.830Z,7.87
2018-07-11T16:08:05.382Z,8.20
2018-07-11T16:10:48.415Z,7.43
2018-07-11T16:13:17.528Z,7.43
2018-07-11T16:15:46.749Z,7.00
2018-07-11T16:18:15.682Z,7.77
2018-07-11T16:20:44.106Z,6.37
2018-07-11T16:23:13.286Z,6.50
2018-07-11T16:25:43.086Z,7.50
2018-07-11T16:28:11.593Z,6.83
2018-07-11T16:30:40.484Z,6.07
2018-07-11T16:33:09.305Z,7.90
2018-07-11T16:35:38.121Z,7.33
2018-07-11T16:38:07.375Z,8.80
2018-07-11T16:40:36.242Z,7.57
2018-07-11T16:43:05.377Z,8.03
2018-07-11T16:45:34.102Z,7.67
2018-07-11T16:48:02.530Z,7.80
2018-07-11T16:50:31.525Z,7.40
2018-07-11T16:53:00.373Z,8.50
2018-07-11T16:55:29.974Z,8.83
2018-07-11T16:57:58.537Z,8.53
2018-07-11T17:00:27.960Z,8.90
2018-07-11T17:03:00.304Z,8.70
2018-07-11T17:05:31.532Z,7.83
2018-07-11T17:08:00.448Z,9.13
2018-07-11T17:10:30.313Z,9.23
2018-07-11T17:13:03.455Z,10.40
2018-07-11T17:15:33.433Z,9.93
2018-07-11T17:18:02.744Z,9.53
2018-07-11T17:20:31.231Z,10.07
2018-07-11T17:23:02.208Z,9.67
2018-07-11T17:25:38.884Z,10.70
2018-07-11T17:28:07.318Z,10.83
2018-07-11T17:30:40.139Z,10.03
2018-07-11T17:33:09.765Z,10.30
2018-07-11T17:35:45.434Z,12.53
2018-07-11T17:38:13.926Z,11.50
2018-07-11T17:40:43.165Z,11.80
2018-07-11T17:43:12.459Z,12.33
2018-07-11T17:45:42.291Z,12.40
2018-07-11T17:48:45.507Z,13.67
2018-07-11T17:52:17.858Z,13.47
2018-07-11T18:50:07.413Z,17.87
2018-07-11T18:52:41.573Z,17.80
2018-07-11T18:55:20.389Z,17.73
2018-07-11T18:57:56.005Z,18.97
2018-07-11T19:00:32.947Z,18.47
2018-07-11T19:03:39.481Z,17.23
2018-07-11T19:06:29.822Z,19.30
2018-07-11T19:09:18.529Z,18.10
2018-07-11T19:11:48.830Z,18.83
2018-07-11T19:14:25.102Z,18.50
2018-07-11T19:16:56.357Z,19.10
2018-07-11T19:19:26.990Z,17.90
2018-07-11T19:21:58.848Z,19.67
2018-07-11T19:24:29.870Z,18.93
2018-07-11T19:27:13.801Z,19.97
2018-07-11T19:29:47.686Z,20.77
2018-07-11T19:32:31.717Z,18.97
2018-07-11T19:35:13.089Z,19.37
2018-07-11T19:38:48.104Z,19.73
2018-07-11T19:41:18.528Z,19.33
2018-07-11T19:44:08.047Z,19.63
2018-07-11T19:48:53.881Z,19.43
2018-07-11T19:52:28.623Z,20.37
2018-07-11T19:57:06.022Z,19.67
2018-07-11T19:59:34.929Z,18.93
2018-07-11T20:02:03.847Z,21.00
2018-07-11T20:04:32.258Z,20.23
2018-07-11T20:07:00.712Z,21.00
2018-07-11T20:09:29.717Z,20.43
2018-07-11T20:11:58.615Z,19.70
2018-07-11T20:14:27.578Z,20.03
2018-07-11T20:16:56.455Z,17.70
2018-07-11T20:19:24.861Z,17.93
2018-07-11T20:21:53.271Z,17.63
2018-07-11T20:24:22.103Z,16.73
2018-07-11T20:26:50.868Z,17.93
2018-07-11T20:29:19.284Z,16.43
2018-07-11T20:31:48.157Z,16.07
2018-07-11T20:34:16.574Z,15.80
2018-07-11T20:36:45.387Z,15.13
2018-07-11T20:39:14.244Z,14.47
2018-07-11T20:41:43.080Z,15.20
2018-07-11T20:44:11.974Z,14.13
2018-07-11T20:46:40.510Z,13.70
2018-07-11T20:49:14.668Z,13.70
2018-07-11T20:51:43.214Z,12.87
2018-07-11T20:54:11.746Z,14.33
2018-07-11T20:56:40.247Z,16.23
2018-07-11T20:59:14.273Z,14.47
2018-07-11T21:03:02.844Z,14.93
2018-07-11T21:05:36.834Z,13.53
2018-07-11T21:08:12.600Z,13.03
2018-07-11T21:10:47.119Z,14.27
2018-07-11T21:13:20.004Z,14.00
2018-07-11T21:15:52.895Z,13.67
2018-07-11T21:18:32.103Z,13.13
2018-07-11T21:21:00.602Z,13.10
2018-07-11T21:23:29.526Z,13.17
2018-07-11T21:25:58.051Z,17.23
2018-07-11T21:28:27.019Z,19.50
2018-07-11T21:30:55.529Z,18.80
2018-07-11T21:33:24.443Z,18.47
2018-07-11T21:35:52.983Z,20.27
2018-07-11T21:38:22.046Z,20.07
2018-07-11T21:40:50.702Z,19.77
2018-07-11T21:43:19.165Z,20.77
2018-07-11T21:45:47.619Z,21.50
2018-07-11T21:48:16.086Z,21.97
2018-07-11T21:50:44.922Z,20.77
2018-07-11T21:53:13.849Z,21.37
2018-07-11T21:55:42.359Z,23.13
2018-07-11T21:58:10.825Z,22.23
2018-07-11T22:00:40.318Z,23.80
2018-07-11T22:03:09.799Z,23.67
2018-07-11T22:05:38.356Z,21.80
2018-07-11T22:08:07.944Z,22.20
2018-07-11T22:10:38.386Z,25.03
2018-07-11T22:13:07.525Z,24.63
2018-07-11T22:15:36.324Z,25.27
2018-07-11T22:18:10.239Z,25.17
2018-07-11T22:20:37.853Z,25.77
2018-07-11T22:23:05.753Z,22.83
2018-07-11T22:25:33.574Z,25.13
2018-07-11T22:28:01.591Z,24.97
2018-07-11T22:30:29.451Z,21.17
2018-07-11T22:32:57.048Z,23.20
2018-07-11T22:35:24.914Z,24.73
2018-07-11T22:37:52.558Z,22.00
2018-07-11T22:40:20.422Z,24.10
2018-07-11T22:42:48.131Z,25.03
2018-07-11T22:45:16.217Z,26.10
2018-07-11T22:47:43.816Z,22.20
2018-07-11T22:50:11.666Z,25.70
2018-07-11T22:52:39.558Z,25.33
2018-07-11T22:55:07.358Z,23.43
2018-07-11T22:57:35.013Z,24.97
2018-07-11T23:00:02.851Z,24.00
2018-07-11T23:02:30.454Z,25.73
2018-07-11T23:04:58.079Z,26.20
2018-07-11T23:07:25.949Z,23.17
2018-07-11T23:09:53.821Z,23.40
2018-07-11T23:12:21.662Z,23.90
2018-07-11T23:14:49.269Z,24.93
2018-07-11T23:17:16.861Z,23.87
2018-07-11T23:19:45.127Z,23.93
2018-07-11T23:22:12.972Z,23.57
2018-07-11T23:24:40.550Z,24.93
2018-07-11T23:27:08.407Z,24.10
2018-07-11T23:29:35.989Z,22.97
2018-07-11T23:32:03.871Z,19.90
2018-07-11T23:34:31.694Z,25.17
2018-07-11T23:37:00.016Z,27.13
2018-07-11T23:39:27.891Z,25.17
2018-07-11T23:41:55.479Z,28.00
2018-07-11T23:44:23.056Z,27.47
2018-07-11T23:46:51.330Z,26.77
2018-07-11T23:49:18.926Z,24.53
2018-07-11T23:51:46.492Z,26.50
2018-07-11T23:54:14.111Z,27.10
2018-07-11T23:56:41.941Z,26.57
2018-07-11T23:59:09.772Z,28.80
